Time;durP1;ratioP1;P1;durP2;ratioP2;P2;SDS_P1;SDS_P2;PMS_P1;PMS_P2;Temp;Humidity;BMP_temperature;BMP_pressure;BME280_temperature;BME280_humidity;BME280_pressure;Samples;Min_cycle;Max_cycle;Signal;HPM_P1;HPM_P2
2021/08/08 00:02:11;;;;;;;12.77;6.78;;;;;;;;;;5029416;28;20075;-69
2021/08/08 00:04:37;;;;;;;11.63;7.35;;;;;;;;;;5029471;28;20083;-69
2021/08/08 00:07:04;;;;;;;12.52;7.97;;;;;;;;;;5032263;28;20049;-69
2021/08/08 00:09:30;;;;;;;13.27;7.82;;;;;;;;;;5030595;28;20052;-69
2021/08/08 00:11:56;;;;;;;12.05;7.25;;;;;;;;;;5030887;28;20107;-69
2021/08/08 00:14:23;;;;;;;10.63;7.53;;;;;;;;;;5027138;28;20042;-69
2021/08/08 00:16:50;;;;;;;10.45;7.72;;;;;;;;;;5030504;28;20051;-69
2021/08/08 00:19:16;;;;;;;12.98;7.90;;;;;;;;;;5028218;28;20041;-69
2021/08/08 00:21:42;;;;;;;13.45;7.97;;;;;;;;;;5025834;28;20046;-69
2021/08/08 00:24:09;;;;;;;12.07;7.88;;;;;;;;;;5026181;28;20054;-69
2021/08/08 00:26:35;;;;;;;18.42;7.60;;;;;;;;;;5028036;28;20754;-69
2021/08/08 00:29:02;;;;;;;14.23;8.85;;;;;;;;;;5028330;28;20784;-69
2021/08/08 00:31:28;;;;;;;11.98;8.48;;;;;;;;;;5026541;28;20065;-69
2021/08/08 00:33:54;;;;;;;10.77;7.47;;;;;;;;;;5030599;28;20129;-69
2021/08/08 00:36:21;;;;;;;14.20;8.77;;;;;;;;;;5028873;28;20053;-69
2021/08/08 00:38:47;;;;;;;13.93;8.30;;;;;;;;;;5030689;28;20042;-69
2021/08/08 00:41:14;;;;;;;12.32;8.07;;;;;;;;;;5028722;28;20050;-69
2021/08/08 00:43:40;;;;;;;10.93;7.70;;;;;;;;;;5029378;28;20057;-69
2021/08/08 00:46:09;;;;;;;16.65;8.80;;;;;;;;;;5025907;28;20128;-69
2021/08/08 00:48:35;;;;;;;12.75;8.30;;;;;;;;;;5030084;28;21437;-69
2021/08/08 00:51:02;;;;;;;11.80;7.90;;;;;;;;;;5029767;28;20060;-69
2021/08/08 00:53:28;;;;;;;19.48;8.73;;;;;;;;;;5027441;28;20053;-69
2021/08/08 00:55:54;;;;;;;10.70;7.65;;;;;;;;;;5030892;28;20056;-69
2021/08/08 00:58:21;;;;;;;19.92;9.68;;;;;;;;;;5026153;28;20096;-69
2021/08/08 01:00:48;;;;;;;14.43;8.63;;;;;;;;;;5030237;28;20060;-69
2021/08/08 01:03:16;;;;;;;10.93;8.30;;;;;;;;;;5021580;28;20069;-69
2021/08/08 01:05:45;;;;;;;11.32;7.80;;;;;;;;;;5029099;28;20469;-69
2021/08/08 01:08:13;;;;;;;14.13;7.93;;;;;;;;;;5030090;28;20477;-69
2021/08/08 01:10:41;;;;;;;12.75;7.82;;;;;;;;;;5030613;28;20045;-69
2021/08/08 01:13:08;;;;;;;14.10;8.48;;;;;;;;;;5030100;28;20049;-69
2021/08/08 01:15:35;;;;;;;15.95;8.73;;;;;;;;;;5025481;28;20082;-69
2021/08/08 01:18:01;;;;;;;14.98;7.88;;;;;;;;;;5028340;28;20042;-69
2021/08/08 01:20:29;;;;;;;16.02;8.75;;;;;;;;;;5025694;28;20042;-69
2021/08/08 01:22:58;;;;;;;16.38;8.90;;;;;;;;;;5029816;28;20141;-69
2021/08/08 01:25:24;;;;;;;15.18;7.97;;;;;;;;;;5023379;28;20059;-69
2021/08/08 01:27:52;;;;;;;14.80;8.45;;;;;;;;;;5028303;28;20061;-69
2021/08/08 01:30:18;;;;;;;12.85;7.93;;;;;;;;;;5027016;28;20045;-70
2021/08/08 01:32:45;;;;;;;12.60;8.40;;;;;;;;;;5027567;28;20056;-69
2021/08/08 01:35:11;;;;;;;13.88;8.80;;;;;;;;;;5029507;28;20196;-69
2021/08/08 01:37:37;;;;;;;12.93;8.55;;;;;;;;;;5027365;28;20111;-68
2021/08/08 01:40:09;;;;;;;13.82;8.45;;;;;;;;;;5025790;28;20053;-69
2021/08/08 01:42:36;;;;;;;20.15;9.63;;;;;;;;;;5023816;28;20057;-69
2021/08/08 01:45:03;;;;;;;17.38;9.30;;;;;;;;;;5030567;28;20041;-69
2021/08/08 01:47:33;;;;;;;15.05;9.68;;;;;;;;;;5026607;28;20103;-69
2021/08/08 01:49:59;;;;;;;17.42;9.32;;;;;;;;;;5029574;28;20057;-69
2021/08/08 01:52:26;;;;;;;15.38;9.75;;;;;;;;;;5027597;28;20060;-69
2021/08/08 01:54:54;;;;;;;15.00;8.80;;;;;;;;;;5027256;28;20045;-68
2021/08/08 01:57:20;;;;;;;15.95;8.60;;;;;;;;;;5026988;28;20067;-69
2021/08/08 01:59:47;;;;;;;17.67;9.25;;;;;;;;;;5028031;28;20410;-69
2021/08/08 02:02:14;;;;;;;14.82;9.02;;;;;;;;;;5023817;28;20140;-69
2021/08/08 02:04:40;;;;;;;11.82;8.43;;;;;;;;;;5027709;28;20095;-69
2021/08/08 02:07:08;;;;;;;14.55;9.57;;;;;;;;;;5027284;28;20053;-69
2021/08/08 02:09:35;;;;;;;13.95;8.75;;;;;;;;;;5029975;28;20366;-69
2021/08/08 02:12:01;;;;;;;18.77;9.05;;;;;;;;;;5029840;28;20040;-69
2021/08/08 02:14:27;;;;;;;13.77;8.73;;;;;;;;;;5029529;28;20140;-69
2021/08/08 02:16:53;;;;;;;16.60;9.30;;;;;;;;;;5029195;28;20167;-69
2021/08/08 02:19:20;;;;;;;18.42;10.25;;;;;;;;;;5029606;28;20408;-69
2021/08/08 02:21:47;;;;;;;16.67;11.25;;;;;;;;;;5028459;28;20473;-69
2021/08/08 02:24:13;;;;;;;20.52;11.40;;;;;;;;;;5026672;28;20063;-69
2021/08/08 02:26:42;;;;;;;18.40;11.10;;;;;;;;;;5028165;28;20052;-69
2021/08/08 02:29:09;;;;;;;18.95;10.52;;;;;;;;;;5028480;28;20042;-69
2021/08/08 02:31:37;;;;;;;16.17;11.55;;;;;;;;;;5027357;28;20042;-69
2021/08/08 02:34:04;;;;;;;16.58;10.95;;;;;;;;;;5028411;28;20366;-69
2021/08/08 02:36:31;;;;;;;21.65;12.02;;;;;;;;;;5028266;28;20465;-69
2021/08/08 02:38:57;;;;;;;16.40;10.68;;;;;;;;;;5029677;28;20041;-69
2021/08/08 02:41:23;;;;;;;18.40;11.60;;;;;;;;;;5028046;28;20053;-69
2021/08/08 02:43:49;;;;;;;19.15;11.45;;;;;;;;;;5027514;28;20319;-69
2021/08/08 02:46:15;;;;;;;16.77;11.18;;;;;;;;;;5031128;28;20106;-69
2021/08/08 02:48:42;;;;;;;17.45;11.32;;;;;;;;;;5028932;28;20052;-69
2021/08/08 02:51:08;;;;;;;17.42;11.48;;;;;;;;;;5023593;28;20103;-69
2021/08/08 02:53:34;;;;;;;22.08;11.65;;;;;;;;;;5028898;28;20095;-69
2021/08/08 02:56:00;;;;;;;18.45;12.32;;;;;;;;;;5028580;28;20067;-69
2021/08/08 02:58:26;;;;;;;19.55;12.73;;;;;;;;;;5027424;28;20073;-69
2021/08/08 03:00:52;;;;;;;26.05;12.95;;;;;;;;;;5029071;28;20446;-69
2021/08/08 03:03:18;;;;;;;18.35;12.63;;;;;;;;;;5028350;28;20076;-69
2021/08/08 03:05:45;;;;;;;22.30;13.90;;;;;;;;;;5028820;28;20116;-69
2021/08/08 03:08:11;;;;;;;25.65;13.07;;;;;;;;;;5029179;28;20440;-69
2021/08/08 03:10:37;;;;;;;20.50;13.20;;;;;;;;;;5027792;28;20064;-69
2021/08/08 03:13:04;;;;;;;18.67;12.35;;;;;;;;;;5029106;28;20049;-69
2021/08/08 03:15:30;;;;;;;19.60;13.43;;;;;;;;;;5028738;28;20053;-69
2021/08/08 03:17:56;;;;;;;20.83;13.07;;;;;;;;;;5028451;28;20093;-69
2021/08/08 03:20:23;;;;;;;23.95;13.45;;;;;;;;;;5028541;28;20045;-69
2021/08/08 03:22:49;;;;;;;24.98;13.45;;;;;;;;;;5028288;28;20116;-69
2021/08/08 03:25:15;;;;;;;22.48;14.25;;;;;;;;;;5026372;28;20448;-69
2021/08/08 03:27:42;;;;;;;26.77;14.48;;;;;;;;;;5028830;28;20044;-69
2021/08/08 03:30:09;;;;;;;25.17;14.40;;;;;;;;;;5029168;28;20068;-69
2021/08/08 03:32:36;;;;;;;30.73;16.35;;;;;;;;;;5028128;28;20046;-68
2021/08/08 03:35:03;;;;;;;23.00;15.48;;;;;;;;;;5029149;28;20132;-69
2021/08/08 03:37:29;;;;;;;28.23;15.70;;;;;;;;;;5029114;28;20050;-69
2021/08/08 03:39:55;;;;;;;24.90;14.88;;;;;;;;;;5032003;28;20124;-69
2021/08/08 03:42:21;;;;;;;27.40;16.25;;;;;;;;;;5028493;28;20060;-69
2021/08/08 03:44:50;;;;;;;29.90;15.93;;;;;;;;;;5026037;28;20037;-69
2021/08/08 03:47:18;;;;;;;26.15;15.23;;;;;;;;;;5027779;28;20533;-69
2021/08/08 03:49:44;;;;;;;29.77;17.05;;;;;;;;;;5028968;28;20065;-69
2021/08/08 03:52:10;;;;;;;27.10;17.15;;;;;;;;;;5028883;28;20519;-69
2021/08/08 03:54:37;;;;;;;32.65;17.35;;;;;;;;;;5024687;28;20065;-69
2021/08/08 03:57:03;;;;;;;34.80;18.67;;;;;;;;;;5027977;28;20041;-69
2021/08/08 03:59:29;;;;;;;34.17;17.48;;;;;;;;;;5028901;28;20456;-69
2021/08/08 04:01:55;;;;;;;32.00;16.65;;;;;;;;;;5024013;28;20049;-69
2021/08/08 04:04:22;;;;;;;30.15;16.98;;;;;;;;;;5028610;28;20057;-69
2021/08/08 04:06:48;;;;;;;31.95;17.50;;;;;;;;;;5027516;28;20101;-69
2021/08/08 04:09:14;;;;;;;31.15;18.38;;;;;;;;;;5028945;28;20048;-69
2021/08/08 04:11:40;;;;;;;31.50;18.42;;;;;;;;;;5024797;28;20516;-69
2021/08/08 04:14:06;;;;;;;32.08;18.05;;;;;;;;;;5027426;28;20057;-69
2021/08/08 04:16:33;;;;;;;38.90;19.75;;;;;;;;;;5028430;28;20092;-69
2021/08/08 04:18:59;;;;;;;38.03;20.58;;;;;;;;;;5028398;28;20054;-69
2021/08/08 04:21:25;;;;;;;36.90;20.55;;;;;;;;;;5027943;28;20046;-69
2021/08/08 04:23:51;;;;;;;34.60;19.88;;;;;;;;;;5025984;28;20045;-69
2021/08/08 04:26:17;;;;;;;46.67;23.27;;;;;;;;;;5026424;28;20124;-68
2021/08/08 04:28:47;;;;;;;47.30;25.08;;;;;;;;;;5026861;28;20049;-68
2021/08/08 04:31:14;;;;;;;52.95;25.85;;;;;;;;;;5025376;28;20393;-68
2021/08/08 04:33:40;;;;;;;46.90;24.25;;;;;;;;;;5021980;28;20468;-69
2021/08/08 04:36:06;;;;;;;59.05;27.30;;;;;;;;;;5028194;28;20042;-69
2021/08/08 04:38:33;;;;;;;49.80;25.75;;;;;;;;;;5028445;28;20481;-69
2021/08/08 04:40:59;;;;;;;48.90;25.98;;;;;;;;;;5031147;28;20151;-69
2021/08/08 04:43:25;;;;;;;50.08;25.63;;;;;;;;;;5031009;28;20050;-69
2021/08/08 04:45:51;;;;;;;40.10;22.17;;;;;;;;;;5029668;28;20041;-69
2021/08/08 04:48:18;;;;;;;37.08;21.38;;;;;;;;;;5031535;28;20045;-69
2021/08/08 04:50:44;;;;;;;43.85;22.05;;;;;;;;;;5030934;28;20450;-69
2021/08/08 04:53:15;;;;;;;39.25;22.48;;;;;;;;;;5031427;28;20118;-69
2021/08/08 04:55:42;;;;;;;36.53;21.17;;;;;;;;;;5029143;28;20450;-69
2021/08/08 04:58:08;;;;;;;42.00;22.27;;;;;;;;;;5029760;28;20053;-69
2021/08/08 05:00:35;;;;;;;45.00;22.98;;;;;;;;;;5030799;28;20553;-69
2021/08/08 05:03:02;;;;;;;50.47;24.50;;;;;;;;;;5030936;28;20056;-69
2021/08/08 05:05:28;;;;;;;50.75;24.52;;;;;;;;;;5031290;28;20056;-69
2021/08/08 05:07:54;;;;;;;44.50;23.30;;;;;;;;;;5031666;28;20053;-69
2021/08/08 05:10:24;;;;;;;45.80;23.95;;;;;;;;;;5029279;28;20048;-69
2021/08/08 05:12:50;;;;;;;38.30;21.80;;;;;;;;;;5031013;28;20136;-69
2021/08/08 05:15:17;;;;;;;47.67;24.25;;;;;;;;;;5030600;28;20048;-69
2021/08/08 05:17:44;;;;;;;46.05;22.67;;;;;;;;;;5031085;28;20508;-69
2021/08/08 05:20:10;;;;;;;41.15;22.58;;;;;;;;;;5030682;28;20059;-69
2021/08/08 05:22:36;;;;;;;40.47;22.83;;;;;;;;;;5030581;28;20056;-70
2021/08/08 05:25:04;;;;;;;36.13;20.67;;;;;;;;;;5026023;28;20045;-69
2021/08/08 05:27:33;;;;;;;43.95;22.48;;;;;;;;;;5027808;28;20073;-69
2021/08/08 05:30:00;;;;;;;45.03;22.25;;;;;;;;;;5029589;28;20058;-69
2021/08/08 05:32:27;;;;;;;59.80;22.77;;;;;;;;;;5025181;28;20537;-69
2021/08/08 05:34:53;;;;;;;42.70;20.10;;;;;;;;;;5025733;28;20064;-70
2021/08/08 05:37:19;;;;;;;41.60;18.55;;;;;;;;;;5025764;28;20107;-69
2021/08/08 05:39:46;;;;;;;73.97;26.23;;;;;;;;;;5030147;28;20056;-69
2021/08/08 05:42:16;;;;;;;101.60;29.98;;;;;;;;;;5026786;28;20053;-69
2021/08/08 05:44:43;;;;;;;43.80;22.25;;;;;;;;;;5031712;28;20156;-70
2021/08/08 05:47:09;;;;;;;56.78;24.13;;;;;;;;;;5030202;28;20057;-70
2021/08/08 05:49:35;;;;;;;47.67;22.27;;;;;;;;;;5030143;28;20040;-71
2021/08/08 05:52:02;;;;;;;49.25;21.25;;;;;;;;;;5030524;28;20116;-70
2021/08/08 05:54:28;;;;;;;43.88;21.63;;;;;;;;;;5029853;28;20042;-70
2021/08/08 05:56:55;;;;;;;53.40;23.77;;;;;;;;;;5030825;28;20069;-71
2021/08/08 05:59:21;;;;;;;74.18;25.25;;;;;;;;;;5028022;28;20410;-71
2021/08/08 06:01:48;;;;;;;37.15;20.00;;;;;;;;;;5030422;28;20127;-70
2021/08/08 06:04:14;;;;;;;62.35;25.45;;;;;;;;;;5030221;28;20045;-71
2021/08/08 06:06:40;;;;;;;66.18;24.60;;;;;;;;;;5030304;28;20045;-71
2021/08/08 06:09:06;;;;;;;55.72;24.63;;;;;;;;;;5029789;28;20117;-71
2021/08/08 06:11:32;;;;;;;65.88;26.00;;;;;;;;;;5030047;28;20868;-71
2021/08/08 06:13:59;;;;;;;67.05;26.20;;;;;;;;;;5029045;28;20049;-73
2021/08/08 06:16:26;;;;;;;82.03;27.85;;;;;;;;;;5029996;28;20497;-73
2021/08/08 06:18:52;;;;;;;77.22;26.02;;;;;;;;;;5029686;28;20116;-73
2021/08/08 06:21:18;;;;;;;56.38;24.45;;;;;;;;;;5029100;28;20053;-72
2021/08/08 06:23:45;;;;;;;61.28;24.15;;;;;;;;;;5029644;28;20520;-73
2021/08/08 06:26:11;;;;;;;64.50;25.73;;;;;;;;;;5029517;28;20128;-72
2021/08/08 06:28:37;;;;;;;53.53;23.08;;;;;;;;;;5028522;28;20045;-72
2021/08/08 06:31:03;;;;;;;53.63;23.15;;;;;;;;;;5029460;28;20573;-72
2021/08/08 06:33:31;;;;;;;72.85;26.13;;;;;;;;;;5026607;28;20041;-73
2021/08/08 06:35:57;;;;;;;61.65;26.35;;;;;;;;;;5028853;28;20061;-72
2021/08/08 06:38:24;;;;;;;66.82;27.05;;;;;;;;;;5030177;28;20095;-72
2021/08/08 06:40:50;;;;;;;65.68;25.98;;;;;;;;;;5029230;28;20046;-72
2021/08/08 06:43:16;;;;;;;44.22;20.42;;;;;;;;;;5028845;28;20046;-73
2021/08/08 06:45:42;;;;;;;47.10;20.60;;;;;;;;;;5029363;28;20434;-73
2021/08/08 06:48:08;;;;;;;36.97;18.50;;;;;;;;;;5029369;28;20055;-73
2021/08/08 06:50:35;;;;;;;49.90;18.55;;;;;;;;;;5028721;28;20034;-73
2021/08/08 06:53:01;;;;;;;39.85;17.90;;;;;;;;;;5028958;28;20048;-73
2021/08/08 06:55:27;;;;;;;38.67;15.27;;;;;;;;;;5029347;28;20397;-72
2021/08/08 06:57:53;;;;;;;33.30;13.65;;;;;;;;;;5027943;28;20041;-73
2021/08/08 07:00:19;;;;;;;48.67;15.88;;;;;;;;;;5029487;28;20476;-73
2021/08/08 07:02:46;;;;;;;36.72;13.32;;;;;;;;;;5026972;28;20045;-73
2021/08/08 07:05:12;;;;;;;44.03;15.80;;;;;;;;;;5029008;28;20444;-73
2021/08/08 07:07:38;;;;;;;30.58;13.23;;;;;;;;;;5028399;28;20114;-73
2021/08/08 07:10:05;;;;;;;37.17;12.77;;;;;;;;;;5028123;28;20497;-73
2021/08/08 07:12:31;;;;;;;38.60;15.18;;;;;;;;;;5028553;28;20052;-73
2021/08/08 07:14:57;;;;;;;39.83;13.10;;;;;;;;;;5026191;28;20037;-73
2021/08/08 07:17:24;;;;;;;28.00;11.05;;;;;;;;;;5027433;28;20045;-73
2021/08/08 07:19:50;;;;;;;38.30;11.32;;;;;;;;;;5029279;28;20048;-73
2021/08/08 07:22:16;;;;;;;28.73;9.45;;;;;;;;;;5025237;28;20045;-73
2021/08/08 07:24:44;;;;;;;16.67;5.75;;;;;;;;;;5035033;28;20045;-73
2021/08/08 07:27:11;;;;;;;16.00;5.50;;;;;;;;;;5023717;28;20057;-74
2021/08/08 07:29:37;;;;;;;18.35;6.65;;;;;;;;;;5026046;28;20033;-73
2021/08/08 07:32:04;;;;;;;17.73;6.85;;;;;;;;;;5019675;28;20749;-73
2021/08/08 07:34:30;;;;;;;16.73;6.25;;;;;;;;;;5021121;28;20053;-73
2021/08/08 07:36:57;;;;;;;21.48;8.32;;;;;;;;;;5015986;28;20057;-73
2021/08/08 07:39:23;;;;;;;21.90;6.88;;;;;;;;;;5020637;28;20132;-73
2021/08/08 07:41:49;;;;;;;31.23;8.80;;;;;;;;;;5021857;28;20041;-73
2021/08/08 07:44:15;;;;;;;23.67;8.05;;;;;;;;;;5022687;28;20060;-73
2021/08/08 07:46:41;;;;;;;24.00;8.70;;;;;;;;;;5022960;28;20101;-73
2021/08/08 07:49:08;;;;;;;28.27;10.70;;;;;;;;;;5022250;28;20046;-73
2021/08/08 07:51:34;;;;;;;18.92;8.65;;;;;;;;;;5024740;28;20466;-73
2021/08/08 07:54:00;;;;;;;24.38;8.05;;;;;;;;;;5024741;28;20065;-73
2021/08/08 07:56:26;;;;;;;23.02;6.82;;;;;;;;;;5024651;28;20357;-74
2021/08/08 07:58:53;;;;;;;16.10;5.82;;;;;;;;;;5024432;28;20489;-73
2021/08/08 08:01:19;;;;;;;23.92;6.10;;;;;;;;;;5014856;28;20045;-73
2021/08/08 08:03:45;;;;;;;20.25;6.22;;;;;;;;;;5012707;28;20053;-73
2021/08/08 08:06:11;;;;;;;19.85;5.57;;;;;;;;;;5022730;28;20526;-73
2021/08/08 08:08:37;;;;;;;24.17;6.70;;;;;;;;;;5024965;28;20045;-73
2021/08/08 08:11:04;;;;;;;17.45;5.57;;;;;;;;;;5019028;28;20047;-73
2021/08/08 08:13:30;;;;;;;21.33;6.40;;;;;;;;;;5020926;28;20462;-73
2021/08/08 08:15:57;;;;;;;22.38;5.82;;;;;;;;;;5028606;28;20179;-73
2021/08/08 08:18:24;;;;;;;19.52;4.97;;;;;;;;;;5026936;28;20576;-73
2021/08/08 08:20:50;;;;;;;24.88;5.40;;;;;;;;;;5028031;28;20054;-73
2021/08/08 08:23:16;;;;;;;23.52;4.90;;;;;;;;;;5029511;28;20053;-73
2021/08/08 08:25:43;;;;;;;20.77;5.22;;;;;;;;;;5029376;28;20396;-73
2021/08/08 08:28:12;;;;;;;22.33;7.10;;;;;;;;;;5028048;28;20041;-73
2021/08/08 08:30:39;;;;;;;22.65;6.05;;;;;;;;;;5027725;28;20475;-73
2021/08/08 08:33:06;;;;;;;19.75;5.38;;;;;;;;;;5027945;28;20042;-73
2021/08/08 08:35:33;;;;;;;17.67;4.60;;;;;;;;;;5025409;28;20492;-73
2021/08/08 08:37:59;;;;;;;19.27;6.50;;;;;;;;;;5026235;28;20068;-73
2021/08/08 08:40:25;;;;;;;17.38;4.65;;;;;;;;;;5029249;28;20073;-73
2021/08/08 08:42:54;;;;;;;19.35;5.28;;;;;;;;;;5022299;28;20148;-73
2021/08/08 08:45:20;;;;;;;25.63;5.65;;;;;;;;;;5028804;28;20124;-73
2021/08/08 08:47:47;;;;;;;23.17;5.25;;;;;;;;;;5028277;28;20524;-73
2021/08/08 08:50:15;;;;;;;26.77;5.57;;;;;;;;;;5025197;28;20120;-73
2021/08/08 08:52:41;;;;;;;13.27;3.72;;;;;;;;;;5028863;28;20434;-73
2021/08/08 08:55:08;;;;;;;15.50;3.63;;;;;;;;;;5026489;28;20408;-73
2021/08/08 08:57:36;;;;;;;13.05;3.53;;;;;;;;;;5026734;28;20085;-73
2021/08/08 09:00:05;;;;;;;15.75;3.67;;;;;;;;;;5028877;28;20042;-73
2021/08/08 09:02:31;;;;;;;16.88;3.60;;;;;;;;;;5024564;28;20532;-73
2021/08/08 09:04:57;;;;;;;21.63;3.47;;;;;;;;;;5029720;28;20086;-73
2021/08/08 09:07:23;;;;;;;21.23;4.47;;;;;;;;;;5025202;28;20450;-73
2021/08/08 09:09:50;;;;;;;17.27;4.85;;;;;;;;;;5028105;28;20045;-73
2021/08/08 09:12:21;;;;;;;16.27;3.90;;;;;;;;;;5031695;28;20071;-73
2021/08/08 09:14:55;;;;;;;16.02;4.10;;;;;;;;;;5031164;28;20056;-73
2021/08/08 09:17:22;;;;;;;16.80;5.00;;;;;;;;;;5028658;28;20094;-73
2021/08/08 09:19:57;;;;;;;23.30;4.93;;;;;;;;;;5031344;28;20099;-73
2021/08/08 09:22:24;;;;;;;22.92;4.57;;;;;;;;;;5029336;28;20128;-73
2021/08/08 09:24:50;;;;;;;14.93;3.80;;;;;;;;;;5022105;28;20568;-73
2021/08/08 09:27:17;;;;;;;18.83;5.05;;;;;;;;;;5027353;28;20073;-73
2021/08/08 09:29:44;;;;;;;16.58;3.63;;;;;;;;;;5028047;28;20539;-73
2021/08/08 09:32:11;;;;;;;19.30;4.72;;;;;;;;;;5025834;28;20102;-73
2021/08/08 09:34:38;;;;;;;14.23;3.28;;;;;;;;;;5027516;28;20056;-73
2021/08/08 09:37:06;;;;;;;17.02;3.92;;;;;;;;;;5024936;28;20035;-73
2021/08/08 09:39:34;;;;;;;19.58;4.00;;;;;;;;;;5025459;28;20088;-73
2021/08/08 09:42:05;;;;;;;19.17;4.45;;;;;;;;;;5028530;28;20453;-73
2021/08/08 09:44:32;;;;;;;24.13;4.80;;;;;;;;;;5028025;28;20064;-73
2021/08/08 09:46:58;;;;;;;14.90;3.53;;;;;;;;;;5026589;28;20041;-73
2021/08/08 09:49:25;;;;;;;21.75;4.70;;;;;;;;;;5023043;28;20528;-73
2021/08/08 09:51:52;;;;;;;14.32;3.08;;;;;;;;;;5025521;28;20107;-73
2021/08/08 09:54:20;;;;;;;14.73;3.53;;;;;;;;;;5023519;28;20061;-73
2021/08/08 09:57:00;;;;;;;16.75;3.67;;;;;;;;;;5023281;28;20089;-73
2021/08/08 09:59:27;;;;;;;11.68;2.58;;;;;;;;;;5022691;28;20045;-73
2021/08/08 10:01:53;;;;;;;21.40;4.32;;;;;;;;;;5022982;28;20041;-73
2021/08/08 10:04:19;;;;;;;18.02;4.28;;;;;;;;;;5023837;28;20078;-73
2021/08/08 10:06:46;;;;;;;17.77;3.60;;;;;;;;;;5022744;28;20064;-73
2021/08/08 10:09:12;;;;;;;17.13;3.72;;;;;;;;;;5023038;28;20045;-73
2021/08/08 10:11:44;;;;;;;16.90;3.10;;;;;;;;;;5027209;28;20065;-73
2021/08/08 10:14:11;;;;;;;14.75;3.10;;;;;;;;;;5017791;28;20485;-73
2021/08/08 10:16:40;;;;;;;22.08;2.85;;;;;;;;;;5021844;28;20048;-73
2021/08/08 10:19:08;;;;;;;15.00;2.85;;;;;;;;;;5021363;28;20046;-73
2021/08/08 10:21:38;;;;;;;15.27;2.78;;;;;;;;;;5021775;28;20112;-73
2021/08/08 10:24:06;;;;;;;13.55;3.00;;;;;;;;;;5019339;28;20491;-73
2021/08/08 10:26:32;;;;;;;13.25;2.97;;;;;;;;;;5021115;28;20343;-73
2021/08/08 10:28:59;;;;;;;13.20;3.22;;;;;;;;;;5026764;28;20033;-74
2021/08/08 10:31:26;;;;;;;14.63;2.97;;;;;;;;;;5018248;28;20221;-74
2021/08/08 10:33:53;;;;;;;14.95;3.13;;;;;;;;;;5028879;28;20041;-74
2021/08/08 10:36:24;;;;;;;14.43;3.33;;;;;;;;;;5022094;28;20429;-74
2021/08/08 10:38:53;;;;;;;19.27;4.80;;;;;;;;;;5028721;28;20046;-73
2021/08/08 10:41:19;;;;;;;16.83;3.75;;;;;;;;;;5022041;28;20057;-74
2021/08/08 10:43:46;;;;;;;17.05;4.28;;;;;;;;;;5022011;28;20049;-74
2021/08/08 10:46:14;;;;;;;17.70;3.50;;;;;;;;;;5028314;28;20061;-73
2021/08/08 10:48:42;;;;;;;16.00;3.80;;;;;;;;;;5027998;28;20042;-74
2021/08/08 10:51:16;;;;;;;21.65;4.00;;;;;;;;;;5022052;28;20050;-73
2021/08/08 10:53:42;;;;;;;12.13;3.90;;;;;;;;;;5028820;28;20050;-78
2021/08/08 10:56:09;;;;;;;17.20;4.72;;;;;;;;;;5021223;28;20478;-78
2021/08/08 10:58:37;;;;;;;17.65;4.55;;;;;;;;;;5022931;28;20490;-78
2021/08/08 11:01:16;;;;;;;23.27;5.80;;;;;;;;;;5018294;28;20077;-77
2021/08/08 11:03:50;;;;;;;19.83;4.88;;;;;;;;;;5022992;28;20160;-78
2021/08/08 11:06:20;;;;;;;21.38;5.18;;;;;;;;;;5031136;28;20053;-78
2021/08/08 11:08:50;;;;;;;16.00;4.47;;;;;;;;;;5024461;28;20413;-78
2021/08/08 11:11:17;;;;;;;19.52;4.78;;;;;;;;;;5020750;28;20104;-78
2021/08/08 11:13:43;;;;;;;20.80;4.78;;;;;;;;;;5018919;28;20057;-78
2021/08/08 11:16:13;;;;;;;14.65;4.65;;;;;;;;;;5019010;28;20042;-78
2021/08/08 11:18:39;;;;;;;14.77;4.85;;;;;;;;;;5026552;28;20060;-78
2021/08/08 11:21:13;;;;;;;17.63;5.18;;;;;;;;;;5022375;28;20051;-79
2021/08/08 11:23:39;;;;;;;18.98;4.65;;;;;;;;;;5024106;28;20041;-78
2021/08/08 11:26:05;;;;;;;20.27;4.78;;;;;;;;;;5018366;28;20046;-79
2021/08/08 11:28:31;;;;;;;24.25;5.97;;;;;;;;;;5026008;28;20224;-78
2021/08/08 11:30:57;;;;;;;25.17;5.28;;;;;;;;;;5021654;28;20540;-78
2021/08/08 11:33:26;;;;;;;27.40;7.15;;;;;;;;;;5028849;28;20124;-77
2021/08/08 11:35:58;;;;;;;20.45;7.53;;;;;;;;;;5023027;28;20052;-77
2021/08/08 11:38:25;;;;;;;23.20;6.30;;;;;;;;;;5018225;28;20033;-78
2021/08/08 11:40:52;;;;;;;14.95;4.65;;;;;;;;;;5020478;28;20113;-78
2021/08/08 11:43:18;;;;;;;17.65;4.32;;;;;;;;;;5021509;28;20055;-78
2021/08/08 11:45:46;;;;;;;18.77;5.20;;;;;;;;;;5019683;28;20072;-78
2021/08/08 11:48:15;;;;;;;13.57;3.92;;;;;;;;;;5018317;28;20478;-78
2021/08/08 11:50:42;;;;;;;15.75;4.60;;;;;;;;;;5043630;28;20144;-78
2021/08/08 11:53:09;;;;;;;14.77;4.95;;;;;;;;;;5025515;28;20046;-77
2021/08/08 11:55:36;;;;;;;15.25;4.32;;;;;;;;;;5025724;28;20072;-78
2021/08/08 11:58:09;;;;;;;16.65;4.70;;;;;;;;;;5027727;28;20068;-78
2021/08/08 12:00:37;;;;;;;16.08;4.85;;;;;;;;;;5027090;28;20132;-77
2021/08/08 12:03:04;;;;;;;17.20;5.22;;;;;;;;;;5027916;28;20076;-78
2021/08/08 12:05:32;;;;;;;15.98;5.18;;;;;;;;;;5021004;28;20507;-78
2021/08/08 12:07:59;;;;;;;21.27;5.22;;;;;;;;;;5027117;28;20037;-78
2021/08/08 12:10:27;;;;;;;20.27;4.25;;;;;;;;;;5024517;28;20042;-79
2021/08/08 12:12:54;;;;;;;20.80;5.40;;;;;;;;;;5028080;28;20050;-79
2021/08/08 12:15:30;;;;;;;25.83;5.22;;;;;;;;;;5025640;28;20049;-79
2021/08/08 12:17:58;;;;;;;18.70;5.80;;;;;;;;;;5029232;28;20053;-79
2021/08/08 12:20:30;;;;;;;16.38;4.78;;;;;;;;;;5024335;28;20045;-79
2021/08/08 12:23:03;;;;;;;13.75;4.13;;;;;;;;;;5030049;28;20057;-79
2021/08/08 12:25:29;;;;;;;16.63;4.85;;;;;;;;;;5023983;28;20041;-79
2021/08/08 12:27:55;;;;;;;14.90;4.22;;;;;;;;;;5020907;28;20065;-79
2021/08/08 12:30:23;;;;;;;14.65;4.20;;;;;;;;;;5023541;28;20041;-77
2021/08/08 12:32:49;;;;;;;28.50;5.25;;;;;;;;;;5020141;28;20041;-76
2021/08/08 12:35:16;;;;;;;14.40;4.07;;;;;;;;;;5022744;28;20053;-77
2021/08/08 12:37:43;;;;;;;15.90;4.70;;;;;;;;;;5038146;28;20355;-77
2021/08/08 12:40:10;;;;;;;21.40;4.88;;;;;;;;;;5025460;28;20128;-76
2021/08/08 12:42:37;;;;;;;15.25;4.38;;;;;;;;;;5024556;28;20152;-77
2021/08/08 12:45:12;;;;;;;17.00;4.18;;;;;;;;;;5028456;28;20045;-76
2021/08/08 12:47:40;;;;;;;18.10;4.07;;;;;;;;;;5026790;28;20148;-76
2021/08/08 12:50:14;;;;;;;13.93;3.83;;;;;;;;;;5024685;28;20450;-76
2021/08/08 12:52:41;;;;;;;16.10;4.75;;;;;;;;;;5021083;28;20048;-77
2021/08/08 12:55:07;;;;;;;18.45;4.72;;;;;;;;;;5023854;28;20046;-76
2021/08/08 12:57:33;;;;;;;15.73;4.43;;;;;;;;;;5023450;28;20041;-76
2021/08/08 13:00:00;;;;;;;12.70;3.67;;;;;;;;;;5024451;28;20411;-77
2021/08/08 13:02:26;;;;;;;14.50;4.57;;;;;;;;;;5027039;28;20117;-76
2021/08/08 13:04:52;;;;;;;11.68;3.03;;;;;;;;;;5037934;28;20111;-77
2021/08/08 13:07:18;;;;;;;13.15;3.20;;;;;;;;;;5028172;28;20128;-77
2021/08/08 13:09:44;;;;;;;11.15;2.92;;;;;;;;;;5025953;28;20125;-77
2021/08/08 13:12:11;;;;;;;18.77;4.13;;;;;;;;;;5025220;28;20038;-77
2021/08/08 13:14:37;;;;;;;16.30;3.83;;;;;;;;;;5023372;28;20057;-77
2021/08/08 13:17:03;;;;;;;16.33;3.17;;;;;;;;;;5023979;28;20068;-77
2021/08/08 13:19:29;;;;;;;13.77;3.08;;;;;;;;;;5020470;28;20048;-77
2021/08/08 13:21:55;;;;;;;13.93;3.28;;;;;;;;;;5022208;28;20485;-77
2021/08/08 13:24:22;;;;;;;16.85;3.92;;;;;;;;;;5025233;28;20118;-77
2021/08/08 13:26:48;;;;;;;14.45;3.28;;;;;;;;;;5027096;28;20103;-78
2021/08/08 13:29:14;;;;;;;15.15;3.42;;;;;;;;;;5027985;28;20143;-74
2021/08/08 13:31:41;;;;;;;15.18;3.60;;;;;;;;;;5027684;28;20041;-72
2021/08/08 13:34:07;;;;;;;16.08;3.45;;;;;;;;;;5023535;28;20045;-77
2021/08/08 13:36:33;;;;;;;13.95;3.20;;;;;;;;;;5021635;28;20397;-72
2021/08/08 13:39:00;;;;;;;13.95;2.72;;;;;;;;;;5019370;28;20069;-72
2021/08/08 13:41:26;;;;;;;10.68;2.67;;;;;;;;;;5024800;28;20121;-72
2021/08/08 13:43:58;;;;;;;19.35;3.05;;;;;;;;;;5019734;28;20050;-82
2021/08/08 13:46:24;;;;;;;10.75;2.92;;;;;;;;;;5024831;28;20049;-81
2021/08/08 13:48:50;;;;;;;12.32;3.47;;;;;;;;;;5026666;28;20061;-72
2021/08/08 13:51:17;;;;;;;12.70;2.67;;;;;;;;;;5023955;28;20129;-79
2021/08/08 13:53:43;;;;;;;9.55;2.60;;;;;;;;;;5019360;28;20481;-71
2021/08/08 13:56:09;;;;;;;13.85;3.47;;;;;;;;;;5014781;28;20037;-71
2021/08/08 13:58:35;;;;;;;12.20;2.85;;;;;;;;;;5021421;28;20045;-71
2021/08/08 14:01:03;;;;;;;10.32;2.83;;;;;;;;;;5022473;28;20073;-71
2021/08/08 14:03:29;;;;;;;9.73;3.15;;;;;;;;;;5023103;28;20045;-71
2021/08/08 14:05:55;;;;;;;10.77;2.70;;;;;;;;;;5021414;28;20044;-71
2021/08/08 14:08:22;;;;;;;16.30;3.70;;;;;;;;;;5026359;28;20099;-71
2021/08/08 14:10:49;;;;;;;12.32;3.45;;;;;;;;;;5027182;28;20450;-71
2021/08/08 14:13:15;;;;;;;11.18;2.95;;;;;;;;;;5019828;28;20102;-74
2021/08/08 14:15:42;;;;;;;13.43;3.00;;;;;;;;;;5026034;28;20037;-74
2021/08/08 14:18:08;;;;;;;10.25;2.80;;;;;;;;;;5019701;28;20038;-73
2021/08/08 14:20:35;;;;;;;10.93;2.97;;;;;;;;;;5027572;28;20067;-74
2021/08/08 14:23:01;;;;;;;14.95;3.33;;;;;;;;;;5024325;28;20049;-74
2021/08/08 14:25:27;;;;;;;11.68;3.17;;;;;;;;;;5021572;28;20042;-74